sensor_id;sensor_type;location;lat;lon;timestamp;temperature;humidity
72591;SHT31;60625;51.212;5.952;2023-05-07T00:02:21;15.18;85.39
72591;SHT31;60625;51.212;5.952;2023-05-07T00:07:22;15.16;85.42
72591;SHT31;60625;51.212;5.952;2023-05-07T00:12:23;15.16;85.53
72591;SHT31;60625;51.212;5.952;2023-05-07T00:17:23;15.18;85.49
72591;SHT31;60625;51.212;5.952;2023-05-07T00:22:24;15.20;85.36
72591;SHT31;60625;51.212;5.952;2023-05-07T00:27:25;15.22;85.40
72591;SHT31;60625;51.212;5.952;2023-05-07T00:32:26;15.20;85.43
72591;SHT31;60625;51.212;5.952;2023-05-07T00:37:26;15.19;85.46
72591;SHT31;60625;51.212;5.952;2023-05-07T00:42:27;15.19;85.54
72591;SHT31;60625;51.212;5.952;2023-05-07T00:47:28;15.17;85.56
72591;SHT31;60625;51.212;5.952;2023-05-07T00:52:28;15.16;85.67
72591;SHT31;60625;51.212;5.952;2023-05-07T00:57:29;15.19;85.69
72591;SHT31;60625;51.212;5.952;2023-05-07T01:02:37;15.19;85.61
72591;SHT31;60625;51.212;5.952;2023-05-07T01:07:39;15.19;85.60
72591;SHT31;60625;51.212;5.952;2023-05-07T01:12:42;15.19;85.52
72591;SHT31;60625;51.212;5.952;2023-05-07T01:17:44;15.17;85.64
72591;SHT31;60625;51.212;5.952;2023-05-07T01:22:49;15.11;85.83
72591;SHT31;60625;51.212;5.952;2023-05-07T01:27:50;15.07;85.96
72591;SHT31;60625;51.212;5.952;2023-05-07T01:32:56;15.08;85.99
72591;SHT31;60625;51.212;5.952;2023-05-07T01:38:04;15.09;85.90
72591;SHT31;60625;51.212;5.952;2023-05-07T01:43:06;15.09;85.83
72591;SHT31;60625;51.212;5.952;2023-05-07T01:48:09;15.01;85.83
72591;SHT31;60625;51.212;5.952;2023-05-07T01:53:11;14.91;85.98
72591;SHT31;60625;51.212;5.952;2023-05-07T01:58:12;14.85;86.00
72591;SHT31;60625;51.212;5.952;2023-05-07T02:03:13;14.81;86.04
72591;SHT31;60625;51.212;5.952;2023-05-07T02:08:25;14.78;86.16
72591;SHT31;60625;51.212;5.952;2023-05-07T02:13:28;14.78;86.20
72591;SHT31;60625;51.212;5.952;2023-05-07T02:18:32;14.77;86.20
72591;SHT31;60625;51.212;5.952;2023-05-07T02:23:33;14.76;86.21
72591;SHT31;60625;51.212;5.952;2023-05-07T02:28:34;14.74;86.20
72591;SHT31;60625;51.212;5.952;2023-05-07T02:33:37;14.72;86.23
72591;SHT31;60625;51.212;5.952;2023-05-07T02:38:40;14.72;86.20
72591;SHT31;60625;51.212;5.952;2023-05-07T02:43:41;14.72;86.16
72591;SHT31;60625;51.212;5.952;2023-05-07T02:48:41;14.72;86.01
72591;SHT31;60625;51.212;5.952;2023-05-07T02:53:43;14.71;86.00
72591;SHT31;60625;51.212;5.952;2023-05-07T02:58:43;14.70;86.02
72591;SHT31;60625;51.212;5.952;2023-05-07T03:03:45;14.66;86.09
72591;SHT31;60625;51.212;5.952;2023-05-07T03:08:45;14.58;86.29
72591;SHT31;60625;51.212;5.952;2023-05-07T03:13:46;14.54;86.44
72591;SHT31;60625;51.212;5.952;2023-05-07T03:18:47;14.51;86.56
72591;SHT31;60625;51.212;5.952;2023-05-07T03:23:47;14.48;86.72
72591;SHT31;60625;51.212;5.952;2023-05-07T03:28:48;14.50;86.56
72591;SHT31;60625;51.212;5.952;2023-05-07T03:33:53;14.50;86.40
72591;SHT31;60625;51.212;5.952;2023-05-07T03:38:57;14.47;86.39
72591;SHT31;60625;51.212;5.952;2023-05-07T03:43:59;14.43;86.54
72591;SHT31;60625;51.212;5.952;2023-05-07T03:49:00;14.41;86.72
72591;SHT31;60625;51.212;5.952;2023-05-07T03:54:01;14.38;86.64
72591;SHT31;60625;51.212;5.952;2023-05-07T03:59:02;14.34;86.78
72591;SHT31;60625;51.212;5.952;2023-05-07T04:04:03;14.31;86.94
72591;SHT31;60625;51.212;5.952;2023-05-07T04:09:06;14.29;87.05
72591;SHT31;60625;51.212;5.952;2023-05-07T04:14:08;14.29;87.19
72591;SHT31;60625;51.212;5.952;2023-05-07T04:19:09;14.29;87.19
72591;SHT31;60625;51.212;5.952;2023-05-07T04:24:10;14.26;87.05
72591;SHT31;60625;51.212;5.952;2023-05-07T04:29:11;14.27;87.05
72591;SHT31;60625;51.212;5.952;2023-05-07T04:34:12;14.31;87.02
72591;SHT31;60625;51.212;5.952;2023-05-07T04:39:14;14.34;87.04
72591;SHT31;60625;51.212;5.952;2023-05-07T04:44:16;14.38;87.09
72591;SHT31;60625;51.212;5.952;2023-05-07T04:49:17;14.42;87.14
72591;SHT31;60625;51.212;5.952;2023-05-07T04:54:18;14.45;87.11
72591;SHT31;60625;51.212;5.952;2023-05-07T04:59:19;14.48;87.08
72591;SHT31;60625;51.212;5.952;2023-05-07T05:04:21;14.49;87.10
72591;SHT31;60625;51.212;5.952;2023-05-07T05:09:21;14.56;87.13
72591;SHT31;60625;51.212;5.952;2023-05-07T05:14:22;14.64;86.93
72591;SHT31;60625;51.212;5.952;2023-05-07T05:19:24;14.69;86.93
72591;SHT31;60625;51.212;5.952;2023-05-07T05:24:25;14.77;86.99
72591;SHT31;60625;51.212;5.952;2023-05-07T05:29:25;14.87;86.68
72591;SHT31;60625;51.212;5.952;2023-05-07T05:34:26;14.92;86.64
72591;SHT31;60625;51.212;5.952;2023-05-07T05:39:28;14.98;86.76
72591;SHT31;60625;51.212;5.952;2023-05-07T05:44:29;15.03;86.67
72591;SHT31;60625;51.212;5.952;2023-05-07T05:49:29;15.12;86.34
72591;SHT31;60625;51.212;5.952;2023-05-07T05:54:30;15.25;86.04
72591;SHT31;60625;51.212;5.952;2023-05-07T05:59:31;15.36;85.58
72591;SHT31;60625;51.212;5.952;2023-05-07T06:04:32;15.40;85.54
72591;SHT31;60625;51.212;5.952;2023-05-07T06:09:32;15.41;85.56
72591;SHT31;60625;51.212;5.952;2023-05-07T06:14:33;15.41;85.23
72591;SHT31;60625;51.212;5.952;2023-05-07T06:19:34;15.45;85.10
72591;SHT31;60625;51.212;5.952;2023-05-07T06:24:35;15.54;85.29
72591;SHT31;60625;51.212;5.952;2023-05-07T06:29:36;15.67;84.99
72591;SHT31;60625;51.212;5.952;2023-05-07T06:34:40;15.78;84.46
72591;SHT31;60625;51.212;5.952;2023-05-07T06:39:41;15.89;84.09
72591;SHT31;60625;51.212;5.952;2023-05-07T06:44:42;15.99;84.07
72591;SHT31;60625;51.212;5.952;2023-05-07T06:49:45;16.04;83.43
72591;SHT31;60625;51.212;5.952;2023-05-07T06:54:48;16.09;83.44
72591;SHT31;60625;51.212;5.952;2023-05-07T06:59:50;16.13;83.69
72591;SHT31;60625;51.212;5.952;2023-05-07T07:04:53;16.19;83.64
72591;SHT31;60625;51.212;5.952;2023-05-07T07:09:54;16.25;83.82
72591;SHT31;60625;51.212;5.952;2023-05-07T07:14:55;16.26;82.98
72591;SHT31;60625;51.212;5.952;2023-05-07T07:19:56;16.28;82.91
72591;SHT31;60625;51.212;5.952;2023-05-07T07:24:57;16.34;82.76
72591;SHT31;60625;51.212;5.952;2023-05-07T07:29:58;16.41;82.27
72591;SHT31;60625;51.212;5.952;2023-05-07T07:34:59;16.51;82.01
72591;SHT31;60625;51.212;5.952;2023-05-07T07:40:01;16.62;81.79
72591;SHT31;60625;51.212;5.952;2023-05-07T07:45:02;16.75;81.35
72591;SHT31;60625;51.212;5.952;2023-05-07T07:50:06;16.94;81.31
72591;SHT31;60625;51.212;5.952;2023-05-07T07:55:08;17.18;81.07
72591;SHT31;60625;51.212;5.952;2023-05-07T08:00:10;17.43;80.40
72591;SHT31;60625;51.212;5.952;2023-05-07T08:05:16;17.61;79.42
72591;SHT31;60625;51.212;5.952;2023-05-07T08:10:17;17.78;78.84
72591;SHT31;60625;51.212;5.952;2023-05-07T08:15:22;17.94;78.40
72591;SHT31;60625;51.212;5.952;2023-05-07T08:20:23;18.18;78.42
72591;SHT31;60625;51.212;5.952;2023-05-07T08:25:24;18.40;78.32
72591;SHT31;60625;51.212;5.952;2023-05-07T08:30:25;18.64;77.87
72591;SHT31;60625;51.212;5.952;2023-05-07T08:35:26;18.85;77.82
72591;SHT31;60625;51.212;5.952;2023-05-07T08:40:28;18.96;77.21
72591;SHT31;60625;51.212;5.952;2023-05-07T08:45:32;19.03;77.17
72591;SHT31;60625;51.212;5.952;2023-05-07T08:50:35;19.12;76.90
72591;SHT31;60625;51.212;5.952;2023-05-07T08:55:37;19.29;76.76
72591;SHT31;60625;51.212;5.952;2023-05-07T09:00:37;19.43;76.07
72591;SHT31;60625;51.212;5.952;2023-05-07T09:05:40;19.62;75.72
72591;SHT31;60625;51.212;5.952;2023-05-07T09:10:41;19.84;75.28
72591;SHT31;60625;51.212;5.952;2023-05-07T09:15:43;20.00;74.21
72591;SHT31;60625;51.212;5.952;2023-05-07T09:20:44;20.14;74.50
72591;SHT31;60625;51.212;5.952;2023-05-07T09:25:44;20.20;74.18
72591;SHT31;60625;51.212;5.952;2023-05-07T09:30:56;20.26;74.04
72591;SHT31;60625;51.212;5.952;2023-05-07T09:35:56;20.34;73.59
72591;SHT31;60625;51.212;5.952;2023-05-07T09:41:01;20.46;73.78
72591;SHT31;60625;51.212;5.952;2023-05-07T09:46:32;20.57;72.82
72591;SHT31;60625;51.212;5.952;2023-05-07T09:51:41;20.75;72.64
72591;SHT31;60625;51.212;5.952;2023-05-07T09:56:49;20.88;71.50
72591;SHT31;60625;51.212;5.952;2023-05-07T10:01:55;20.96;71.18
72591;SHT31;60625;51.212;5.952;2023-05-07T10:06:59;21.06;69.89
72591;SHT31;60625;51.212;5.952;2023-05-07T10:12:01;21.19;68.18
72591;SHT31;60625;51.212;5.952;2023-05-07T10:17:02;21.32;67.21
72591;SHT31;60625;51.212;5.952;2023-05-07T10:22:05;21.55;66.81
72591;SHT31;60625;51.212;5.952;2023-05-07T10:27:10;21.70;65.51
72591;SHT31;60625;51.212;5.952;2023-05-07T10:37:50;22.10;64.43
72591;SHT31;60625;51.212;5.952;2023-05-07T10:42:53;22.12;62.85
72591;SHT31;60625;51.212;5.952;2023-05-07T10:48:14;22.17;61.98
72591;SHT31;60625;51.212;5.952;2023-05-07T10:58:39;22.41;61.55
72591;SHT31;60625;51.212;5.952;2023-05-07T11:09:25;22.70;60.58
72591;SHT31;60625;51.212;5.952;2023-05-07T11:14:52;22.84;58.80
72591;SHT31;60625;51.212;5.952;2023-05-07T11:19:58;22.99;60.67
72591;SHT31;60625;51.212;5.952;2023-05-07T11:25:07;23.00;60.28
72591;SHT31;60625;51.212;5.952;2023-05-07T11:30:09;22.94;59.59
72591;SHT31;60625;51.212;5.952;2023-05-07T11:35:10;22.90;59.33
72591;SHT31;60625;51.212;5.952;2023-05-07T11:40:12;22.86;57.74
72591;SHT31;60625;51.212;5.952;2023-05-07T11:45:19;22.90;57.51
72591;SHT31;60625;51.212;5.952;2023-05-07T11:50:27;22.92;56.62
72591;SHT31;60625;51.212;5.952;2023-05-07T11:55:27;22.86;56.42
72591;SHT31;60625;51.212;5.952;2023-05-07T12:00:28;22.74;56.24
72591;SHT31;60625;51.212;5.952;2023-05-07T12:05:28;22.69;56.55
72591;SHT31;60625;51.212;5.952;2023-05-07T12:10:29;22.62;56.99
72591;SHT31;60625;51.212;5.952;2023-05-07T12:15:30;22.57;57.60
72591;SHT31;60625;51.212;5.952;2023-05-07T12:20:30;22.56;58.28
72591;SHT31;60625;51.212;5.952;2023-05-07T12:25:31;22.51;58.28
72591;SHT31;60625;51.212;5.952;2023-05-07T12:30:47;22.51;59.08
72591;SHT31;60625;51.212;5.952;2023-05-07T12:35:48;22.49;58.35
72591;SHT31;60625;51.212;5.952;2023-05-07T12:40:50;22.38;58.85
72591;SHT31;60625;51.212;5.952;2023-05-07T12:45:55;22.31;59.44
72591;SHT31;60625;51.212;5.952;2023-05-07T12:50:59;22.14;60.35
72591;SHT31;60625;51.212;5.952;2023-05-07T12:56:02;21.67;62.55
72591;SHT31;60625;51.212;5.952;2023-05-07T13:01:06;21.32;64.38
72591;SHT31;60625;51.212;5.952;2023-05-07T13:06:09;21.06;66.33
72591;SHT31;60625;51.212;5.952;2023-05-07T13:11:13;20.93;67.09
72591;SHT31;60625;51.212;5.952;2023-05-07T13:16:13;20.88;67.50
72591;SHT31;60625;51.212;5.952;2023-05-07T13:21:14;20.85;68.75
72591;SHT31;60625;51.212;5.952;2023-05-07T13:26:14;20.81;69.32
72591;SHT31;60625;51.212;5.952;2023-05-07T13:31:15;20.83;69.89
72591;SHT31;60625;51.212;5.952;2023-05-07T13:36:16;20.83;69.62
72591;SHT31;60625;51.212;5.952;2023-05-07T13:41:16;20.81;69.11
72591;SHT31;60625;51.212;5.952;2023-05-07T13:46:17;20.86;69.01
72591;SHT31;60625;51.212;5.952;2023-05-07T13:51:19;20.96;68.73
72591;SHT31;60625;51.212;5.952;2023-05-07T13:56:19;21.02;67.38
72591;SHT31;60625;51.212;5.952;2023-05-07T14:01:21;21.04;67.43
72591;SHT31;60625;51.212;5.952;2023-05-07T14:06:21;20.93;66.47
72591;SHT31;60625;51.212;5.952;2023-05-07T14:11:22;20.87;66.82
72591;SHT31;60625;51.212;5.952;2023-05-07T14:16:23;21.07;66.96
72591;SHT31;60625;51.212;5.952;2023-05-07T14:21:24;21.22;66.86
72591;SHT31;60625;51.212;5.952;2023-05-07T14:26:24;21.33;65.22
72591;SHT31;60625;51.212;5.952;2023-05-07T14:31:27;21.27;65.03
72591;SHT31;60625;51.212;5.952;2023-05-07T14:36:27;21.36;64.79
72591;SHT31;60625;51.212;5.952;2023-05-07T14:41:28;21.33;64.08
72591;SHT31;60625;51.212;5.952;2023-05-07T14:46:28;21.41;63.44
72591;SHT31;60625;51.212;5.952;2023-05-07T14:51:28;21.48;62.27
72591;SHT31;60625;51.212;5.952;2023-05-07T14:56:29;21.50;63.29
72591;SHT31;60625;51.212;5.952;2023-05-07T15:01:29;21.66;63.17
72591;SHT31;60625;51.212;5.952;2023-05-07T15:06:30;21.65;62.13
72591;SHT31;60625;51.212;5.952;2023-05-07T15:11:32;21.76;62.35
72591;SHT31;60625;51.212;5.952;2023-05-07T15:16:33;21.90;62.16
72591;SHT31;60625;51.212;5.952;2023-05-07T15:21:34;21.94;61.62
72591;SHT31;60625;51.212;5.952;2023-05-07T15:26:36;21.90;62.37
72591;SHT31;60625;51.212;5.952;2023-05-07T15:31:36;21.87;62.98
72591;SHT31;60625;51.212;5.952;2023-05-07T15:36:38;21.90;63.58
72591;SHT31;60625;51.212;5.952;2023-05-07T15:41:39;21.86;63.96
72591;SHT31;60625;51.212;5.952;2023-05-07T15:46:39;21.87;64.40
72591;SHT31;60625;51.212;5.952;2023-05-07T15:51:40;21.94;64.40
72591;SHT31;60625;51.212;5.952;2023-05-07T15:56:40;21.93;64.25
72591;SHT31;60625;51.212;5.952;2023-05-07T16:01:41;21.95;64.42
72591;SHT31;60625;51.212;5.952;2023-05-07T16:06:42;21.88;64.47
72591;SHT31;60625;51.212;5.952;2023-05-07T16:11:47;21.83;64.67
72591;SHT31;60625;51.212;5.952;2023-05-07T16:16:48;21.79;64.81
72591;SHT31;60625;51.212;5.952;2023-05-07T16:21:48;21.76;64.51
72591;SHT31;60625;51.212;5.952;2023-05-07T16:26:49;21.68;64.41
72591;SHT31;60625;51.212;5.952;2023-05-07T16:31:49;21.54;64.76
72591;SHT31;60625;51.212;5.952;2023-05-07T16:36:51;21.51;65.13
72591;SHT31;60625;51.212;5.952;2023-05-07T16:41:52;21.51;64.64
72591;SHT31;60625;51.212;5.952;2023-05-07T16:46:53;21.40;64.80
72591;SHT31;60625;51.212;5.952;2023-05-07T16:51:53;21.37;64.67
72591;SHT31;60625;51.212;5.952;2023-05-07T16:56:54;21.38;64.14
72591;SHT31;60625;51.212;5.952;2023-05-07T17:01:54;21.37;64.26
72591;SHT31;60625;51.212;5.952;2023-05-07T17:06:54;21.38;63.96
72591;SHT31;60625;51.212;5.952;2023-05-07T17:11:56;21.25;63.67
72591;SHT31;60625;51.212;5.952;2023-05-07T17:16:56;21.14;63.78
72591;SHT31;60625;51.212;5.952;2023-05-07T17:21:57;21.00;64.14
72591;SHT31;60625;51.212;5.952;2023-05-07T17:26:57;20.87;65.78
72591;SHT31;60625;51.212;5.952;2023-05-07T17:31:57;20.68;65.79
72591;SHT31;60625;51.212;5.952;2023-05-07T17:36:58;20.53;65.54
72591;SHT31;60625;51.212;5.952;2023-05-07T17:41:59;20.44;65.71
72591;SHT31;60625;51.212;5.952;2023-05-07T17:46:59;20.37;66.00
72591;SHT31;60625;51.212;5.952;2023-05-07T17:52:00;20.31;65.96
72591;SHT31;60625;51.212;5.952;2023-05-07T17:57:00;20.24;65.69
72591;SHT31;60625;51.212;5.952;2023-05-07T18:02:01;20.17;65.53
72591;SHT31;60625;51.212;5.952;2023-05-07T18:07:01;20.12;65.93
72591;SHT31;60625;51.212;5.952;2023-05-07T18:12:02;20.07;66.00
72591;SHT31;60625;51.212;5.952;2023-05-07T18:17:03;20.02;66.16
72591;SHT31;60625;51.212;5.952;2023-05-07T18:22:03;19.97;66.50
72591;SHT31;60625;51.212;5.952;2023-05-07T18:27:04;19.90;66.60
72591;SHT31;60625;51.212;5.952;2023-05-07T18:32:04;19.83;66.98
72591;SHT31;60625;51.212;5.952;2023-05-07T18:37:05;19.76;67.46
72591;SHT31;60625;51.212;5.952;2023-05-07T18:42:06;19.70;67.58
72591;SHT31;60625;51.212;5.952;2023-05-07T18:47:07;19.65;67.69
72591;SHT31;60625;51.212;5.952;2023-05-07T18:52:08;19.59;67.89
72591;SHT31;60625;51.212;5.952;2023-05-07T18:57:09;19.49;68.11
72591;SHT31;60625;51.212;5.952;2023-05-07T19:02:09;19.40;68.56
72591;SHT31;60625;51.212;5.952;2023-05-07T19:07:13;19.32;68.58
72591;SHT31;60625;51.212;5.952;2023-05-07T19:12:16;19.26;69.38
72591;SHT31;60625;51.212;5.952;2023-05-07T19:17:17;19.23;69.43
72591;SHT31;60625;51.212;5.952;2023-05-07T19:22:17;19.15;69.21
72591;SHT31;60625;51.212;5.952;2023-05-07T19:27:18;19.03;69.64
72591;SHT31;60625;51.212;5.952;2023-05-07T19:32:18;18.90;70.15
72591;SHT31;60625;51.212;5.952;2023-05-07T19:37:20;18.80;70.57
72591;SHT31;60625;51.212;5.952;2023-05-07T19:42:24;18.73;70.96
72591;SHT31;60625;51.212;5.952;2023-05-07T19:47:25;18.65;71.44
72591;SHT31;60625;51.212;5.952;2023-05-07T19:52:26;18.56;71.59
72591;SHT31;60625;51.212;5.952;2023-05-07T19:57:26;18.48;72.15
72591;SHT31;60625;51.212;5.952;2023-05-07T20:02:27;18.42;72.10
72591;SHT31;60625;51.212;5.952;2023-05-07T20:07:27;18.34;72.19
72591;SHT31;60625;51.212;5.952;2023-05-07T20:12:28;18.25;72.58
72591;SHT31;60625;51.212;5.952;2023-05-07T20:17:28;18.19;72.89
72591;SHT31;60625;51.212;5.952;2023-05-07T20:22:30;18.11;73.18
72591;SHT31;60625;51.212;5.952;2023-05-07T20:27:33;18.00;73.56
72591;SHT31;60625;51.212;5.952;2023-05-07T20:32:34;17.95;73.76
72591;SHT31;60625;51.212;5.952;2023-05-07T20:37:37;17.92;74.06
72591;SHT31;60625;51.212;5.952;2023-05-07T20:42:39;17.93;74.43
72591;SHT31;60625;51.212;5.952;2023-05-07T20:47:39;17.92;74.50
72591;SHT31;60625;51.212;5.952;2023-05-07T20:52:40;17.87;74.62
72591;SHT31;60625;51.212;5.952;2023-05-07T20:57:41;17.78;74.79
72591;SHT31;60625;51.212;5.952;2023-05-07T21:02:42;17.73;75.11
72591;SHT31;60625;51.212;5.952;2023-05-07T21:07:44;17.70;75.46
72591;SHT31;60625;51.212;5.952;2023-05-07T21:12:45;17.61;75.94
72591;SHT31;60625;51.212;5.952;2023-05-07T21:17:45;17.53;76.39
72591;SHT31;60625;51.212;5.952;2023-05-07T21:22:46;17.53;76.44
72591;SHT31;60625;51.212;5.952;2023-05-07T21:27:46;17.50;76.54
72591;SHT31;60625;51.212;5.952;2023-05-07T21:32:47;17.48;76.62
72591;SHT31;60625;51.212;5.952;2023-05-07T21:37:47;17.49;76.71
72591;SHT31;60625;51.212;5.952;2023-05-07T21:42:48;17.51;76.65
72591;SHT31;60625;51.212;5.952;2023-05-07T21:47:49;17.50;76.84
72591;SHT31;60625;51.212;5.952;2023-05-07T21:52:49;17.42;77.14
72591;SHT31;60625;51.212;5.952;2023-05-07T21:57:50;17.37;77.39
72591;SHT31;60625;51.212;5.952;2023-05-07T22:02:50;17.36;77.50
72591;SHT31;60625;51.212;5.952;2023-05-07T22:07:51;17.32;77.65
72591;SHT31;60625;51.212;5.952;2023-05-07T22:12:51;17.29;77.88
72591;SHT31;60625;51.212;5.952;2023-05-07T22:17:52;17.24;78.00
72591;SHT31;60625;51.212;5.952;2023-05-07T22:22:53;17.19;78.25
72591;SHT31;60625;51.212;5.952;2023-05-07T22:27:55;17.10;78.50
72591;SHT31;60625;51.212;5.952;2023-05-07T22:32:56;17.01;78.85
72591;SHT31;60625;51.212;5.952;2023-05-07T22:37:56;16.98;78.97
72591;SHT31;60625;51.212;5.952;2023-05-07T22:42:57;16.99;79.03
72591;SHT31;60625;51.212;5.952;2023-05-07T22:47:58;16.98;79.13
72591;SHT31;60625;51.212;5.952;2023-05-07T22:52:58;16.95;79.37
72591;SHT31;60625;51.212;5.952;2023-05-07T22:57:59;16.89;79.63
72591;SHT31;60625;51.212;5.952;2023-05-07T23:02:59;16.83;79.89
72591;SHT31;60625;51.212;5.952;2023-05-07T23:08:00;16.82;80.00
72591;SHT31;60625;51.212;5.952;2023-05-07T23:13:01;16.82;80.13
72591;SHT31;60625;51.212;5.952;2023-05-07T23:18:02;16.80;80.27
72591;SHT31;60625;51.212;5.952;2023-05-07T23:23:02;16.77;80.40
72591;SHT31;60625;51.212;5.952;2023-05-07T23:28:03;16.71;80.66
72591;SHT31;60625;51.212;5.952;2023-05-07T23:33:03;16.64;80.94
72591;SHT31;60625;51.212;5.952;2023-05-07T23:38:04;16.57;81.18
72591;SHT31;60625;51.212;5.952;2023-05-07T23:43:04;16.49;81.43
72591;SHT31;60625;51.212;5.952;2023-05-07T23:48:05;16.41;81.80
72591;SHT31;60625;51.212;5.952;2023-05-07T23:53:05;16.34;82.04
72591;SHT31;60625;51.212;5.952;2023-05-07T23:58:06;16.29;82.20
